Time;durP1;ratioP1;P1;durP2;ratioP2;P2;SDS_P1;SDS_P2;PMS_P1;PMS_P2;Temp;Humidity;BMP_temperature;BMP_pressure;BME280_temperature;BME280_humidity;BME280_pressure;Samples;Min_cycle;Max_cycle;Signal;HPM_P1;HPM_P2
2022/01/06 00:01:12;;;;;;;3.23;0.70;;;1.90;99.90;;;;;;4957743;28;20027;-90
2022/01/06 00:03:38;;;;;;;4.27;0.90;;;1.90;99.90;;;;;;4974502;28;20117;-90
2022/01/06 00:06:07;;;;;;;4.17;0.90;;;1.80;99.90;;;;;;4958770;28;20029;-90
2022/01/06 00:08:34;;;;;;;4.93;0.80;;;1.90;99.90;;;;;;4957827;28;20031;-90
2022/01/06 00:11:01;;;;;;;3.43;0.63;;;1.90;99.90;;;;;;4974431;28;20035;-90
2022/01/06 00:13:35;;;;;;;4.73;1.87;;;1.90;99.90;;;;;;4958267;28;20122;-90
2022/01/06 00:24:21;;;;;;;4.80;0.90;;;2.00;99.90;;;;;;4978488;28;20057;-90
2022/01/06 00:26:50;;;;;;;3.93;1.57;;;2.10;99.90;;;;;;4977515;28;20027;-90
2022/01/06 00:29:17;;;;;;;5.63;1.10;;;2.00;99.90;;;;;;4960312;28;20027;-90
2022/01/06 00:31:42;;;;;;;4.23;1.10;;;2.00;99.90;;;;;;4942556;29;20019;-90
2022/01/06 00:34:10;;;;;;;7.50;1.10;;;2.10;99.90;;;;;;4942879;29;20050;-90
2022/01/06 00:36:40;;;;;;;10.37;1.37;;;2.10;99.90;;;;;;4974304;28;20026;-90
2022/01/06 00:39:10;;;;;;;7.00;1.27;;;2.00;99.90;;;;;;4968740;28;20027;-90
2022/01/06 00:41:37;;;;;;;4.50;1.30;;;2.10;99.90;;;;;;4979445;28;20027;-90
2022/01/06 00:44:04;;;;;;;8.40;0.93;;;2.10;99.90;;;;;;4970416;28;20031;-90
2022/01/06 00:46:30;;;;;;;5.13;1.37;;;2.10;99.90;;;;;;4964608;29;20031;-91
2022/01/06 00:48:55;;;;;;;5.27;1.30;;;2.00;99.90;;;;;;4987870;23;20047;-86
2022/01/06 00:51:21;;;;;;;7.63;1.43;;;2.20;99.90;;;;;;4975429;28;20019;-87
2022/01/06 00:53:46;;;;;;;3.97;0.93;;;2.00;99.90;;;;;;4975625;28;20101;-87
2022/01/06 00:56:13;;;;;;;6.93;1.00;;;2.00;99.90;;;;;;4975628;28;20022;-87
2022/01/06 00:58:38;;;;;;;4.47;0.90;;;2.00;99.90;;;;;;4962000;28;20043;-87
2022/01/06 01:01:04;;;;;;;4.87;1.10;;;2.00;99.90;;;;;;4945288;29;20023;-89
2022/01/06 01:03:30;;;;;;;5.00;1.20;;;2.00;99.90;;;;;;4955431;28;20031;-89
2022/01/06 01:05:57;;;;;;;5.40;1.10;;;2.00;99.90;;;;;;4955869;28;20031;-89
2022/01/06 01:08:24;;;;;;;2.17;0.80;;;2.00;99.90;;;;;;4937848;29;20507;-89
2022/01/06 01:10:54;;;;;;;3.27;0.90;;;2.00;99.90;;;;;;4955398;29;20027;-90
2022/01/06 01:13:28;;;;;;;2.10;0.70;;;2.00;99.90;;;;;;4955575;28;20106;-89
2022/01/06 01:15:57;;;;;;;1.70;0.80;;;1.90;99.90;;;;;;4944666;29;20059;-89
2022/01/06 01:18:23;;;;;;;3.93;1.07;;;2.00;99.90;;;;;;4954062;28;20054;-90
2022/01/06 01:20:53;;;;;;;3.37;1.10;;;2.00;99.90;;;;;;4941314;28;20411;-90
2022/01/06 01:23:21;;;;;;;5.37;1.27;;;2.00;99.90;;;;;;4939291;29;20034;-89
2022/01/06 01:25:46;;;;;;;5.13;0.90;;;2.00;99.90;;;;;;4934787;29;20038;-89
2022/01/06 01:28:14;;;;;;;2.53;0.83;;;2.00;99.90;;;;;;4934554;29;20027;-89
2022/01/06 01:31:12;;;;;;;3.87;1.43;;;2.00;99.90;;;;;;4939963;29;20078;-89
2022/01/06 01:33:26;;;;;;;4.10;1.07;;;2.00;99.90;;;;;;4955018;29;20043;-89
2022/01/06 01:35:51;;;;;;;6.17;1.10;;;2.00;99.90;;;;;;4940444;29;20510;-89
2022/01/06 01:38:17;;;;;;;6.20;1.33;;;2.10;99.90;;;;;;4936911;29;20468;-89
2022/01/06 01:40:43;;;;;;;2.30;0.73;;;2.00;99.90;;;;;;4945877;29;20404;-89
2022/01/06 01:43:08;;;;;;;6.30;1.10;;;2.10;99.90;;;;;;4937748;29;20404;-89
2022/01/06 01:45:34;;;;;;;4.20;0.90;;;2.10;99.90;;;;;;4953904;28;20027;-89
2022/01/06 01:48:06;;;;;;;4.77;1.63;;;2.10;99.90;;;;;;4948127;28;20061;-90
2022/01/06 01:50:34;;;;;;;6.13;1.20;;;2.10;99.90;;;;;;4933680;29;20421;-89
2022/01/06 01:53:00;;;;;;;3.50;1.20;;;2.10;99.90;;;;;;4960539;28;20035;-90
2022/01/06 01:55:28;;;;;;;5.87;1.47;;;2.20;99.90;;;;;;4960180;28;20043;-90
2022/01/06 01:57:54;;;;;;;5.40;1.07;;;2.00;99.90;;;;;;4937450;29;20114;-90
2022/01/06 02:00:22;;;;;;;3.67;0.90;;;2.00;99.90;;;;;;4953363;29;20031;-89
2022/01/06 02:02:48;;;;;;;2.60;0.83;;;2.00;99.90;;;;;;4951385;29;20470;-89
2022/01/06 02:05:21;;;;;;;4.53;0.63;;;2.00;99.90;;;;;;4944687;28;20122;-90
2022/01/06 02:07:47;;;;;;;5.77;1.00;;;2.00;99.90;;;;;;4954324;29;20023;-90
2022/01/06 02:10:13;;;;;;;3.30;1.10;;;2.00;99.90;;;;;;4932834;29;20023;-90
2022/01/06 02:12:41;;;;;;;5.33;1.13;;;2.10;99.90;;;;;;4953362;29;20050;-89
2022/01/06 02:15:09;;;;;;;2.80;0.80;;;2.10;99.90;;;;;;4953194;29;20031;-90
2022/01/06 02:17:38;;;;;;;2.57;0.93;;;2.10;99.90;;;;;;4953493;28;20031;-90
2022/01/06 02:20:14;;;;;;;5.00;1.10;;;2.10;99.90;;;;;;4956553;28;20027;-89
2022/01/06 02:22:41;;;;;;;3.20;1.03;;;2.10;99.90;;;;;;4962560;28;20082;-90
2022/01/06 02:25:20;;;;;;;3.40;1.00;;;2.10;99.90;;;;;;4962271;28;20023;-89
2022/01/06 02:27:48;;;;;;;4.13;1.00;;;2.10;99.90;;;;;;4960308;28;20032;-90
2022/01/06 02:30:15;;;;;;;2.93;1.03;;;2.30;99.90;;;;;;4947891;28;20039;-89
2022/01/06 02:32:41;;;;;;;5.87;1.37;;;2.10;99.90;;;;;;4937053;29;20110;-90
2022/01/06 02:35:09;;;;;;;4.80;0.90;;;2.10;99.90;;;;;;4936720;29;20113;-89
2022/01/06 02:37:35;;;;;;;4.67;0.90;;;2.10;99.90;;;;;;4939587;29;20027;-89
2022/01/06 02:40:05;;;;;;;6.07;1.60;;;2.10;99.90;;;;;;4952787;28;20399;-89
2022/01/06 02:42:31;;;;;;;3.67;1.10;;;2.10;99.90;;;;;;4950502;29;20038;-89
2022/01/06 02:44:57;;;;;;;3.23;0.80;;;2.10;99.90;;;;;;4955751;28;20197;-89
2022/01/06 02:47:23;;;;;;;4.93;0.70;;;2.10;99.90;;;;;;4953740;28;20110;-89
2022/01/06 02:49:48;;;;;;;3.00;0.70;;;2.00;99.90;;;;;;4947932;28;20047;-89
2022/01/06 02:52:14;;;;;;;7.40;1.17;;;1.90;99.90;;;;;;4957943;28;20090;-89
2022/01/06 02:54:40;;;;;;;1.93;0.83;;;2.00;99.90;;;;;;4950191;28;20023;-89
2022/01/06 02:57:05;;;;;;;2.73;1.00;;;2.00;99.90;;;;;;4956937;28;20054;-90
2022/01/06 02:59:31;;;;;;;3.13;0.90;;;1.90;99.90;;;;;;4928484;28;20039;-90
2022/01/06 03:01:57;;;;;;;3.60;1.30;;;1.90;99.90;;;;;;4951882;28;20027;-90
2022/01/06 03:04:23;;;;;;;5.13;1.03;;;2.00;99.90;;;;;;4953475;28;20130;-89
2022/01/06 03:06:49;;;;;;;4.17;1.00;;;2.00;99.90;;;;;;4952580;29;20042;-89
2022/01/06 03:09:25;;;;;;;2.43;0.90;;;2.00;99.90;;;;;;4952061;29;20011;-89
2022/01/06 03:11:53;;;;;;;2.00;0.80;;;2.00;99.90;;;;;;4952382;29;20102;-90
2022/01/06 03:14:19;;;;;;;2.00;0.90;;;1.90;99.90;;;;;;4952129;28;20081;-90
2022/01/06 03:16:47;;;;;;;4.47;0.83;;;2.00;99.90;;;;;;4963313;28;20026;-89
2022/01/06 03:19:13;;;;;;;4.67;0.77;;;1.90;99.90;;;;;;4955623;28;20395;-90
2022/01/06 03:21:38;;;;;;;2.00;0.67;;;1.90;99.90;;;;;;4936226;29;20027;-89
2022/01/06 03:24:04;;;;;;;7.93;1.10;;;2.00;99.90;;;;;;4955754;28;20025;-89
2022/01/06 03:26:30;;;;;;;2.47;0.70;;;2.00;99.90;;;;;;4972727;28;20440;-89
2022/01/06 03:28:56;;;;;;;2.47;0.70;;;2.00;99.90;;;;;;4971575;28;20392;-89
2022/01/06 03:31:21;;;;;;;2.33;0.73;;;2.00;99.90;;;;;;4971164;28;20029;-89
2022/01/06 03:33:47;;;;;;;5.27;0.77;;;2.10;99.90;;;;;;4955471;28;20408;-89
2022/01/06 03:36:12;;;;;;;3.83;1.00;;;2.10;99.90;;;;;;4916996;29;20034;-89
2022/01/06 03:38:38;;;;;;;2.57;0.60;;;2.10;99.90;;;;;;4916905;29;20027;-90
2022/01/06 03:41:04;;;;;;;6.43;1.17;;;2.10;99.90;;;;;;4917136;29;20071;-89
2022/01/06 03:43:29;;;;;;;2.83;0.60;;;2.10;99.90;;;;;;4925463;28;20448;-89
2022/01/06 03:45:55;;;;;;;3.53;0.93;;;2.10;99.90;;;;;;4972829;28;20023;-89
2022/01/06 03:48:21;;;;;;;2.37;0.90;;;2.10;99.90;;;;;;4971250;28;20042;-89
2022/01/06 03:50:46;;;;;;;2.93;0.60;;;2.10;99.90;;;;;;4945318;28;20039;-89
2022/01/06 03:53:12;;;;;;;3.27;0.70;;;2.10;99.90;;;;;;4954771;28;20384;-90
2022/01/06 03:55:39;;;;;;;4.87;0.80;;;2.10;99.90;;;;;;4951592;28;20067;-89
2022/01/06 03:58:05;;;;;;;4.10;1.00;;;2.10;99.90;;;;;;4962222;28;20042;-90
2022/01/06 04:00:31;;;;;;;3.20;1.23;;;2.10;99.90;;;;;;4949654;28;20042;-89
2022/01/06 04:02:57;;;;;;;6.33;0.70;;;2.10;99.90;;;;;;4953152;28;20043;-89
2022/01/06 04:05:23;;;;;;;3.53;1.13;;;2.10;99.90;;;;;;4975126;28;20121;-89
2022/01/06 04:07:48;;;;;;;3.00;0.80;;;2.10;99.90;;;;;;4974627;28;20030;-90
2022/01/06 04:10:14;;;;;;;2.13;0.80;;;2.10;99.90;;;;;;4963366;28;20509;-90
2022/01/06 04:12:40;;;;;;;2.40;1.03;;;2.10;99.90;;;;;;4959307;28;20035;-90
2022/01/06 04:15:10;;;;;;;4.67;0.90;;;2.10;99.90;;;;;;4961258;28;20522;-90
2022/01/06 04:17:36;;;;;;;5.30;1.43;;;2.10;99.90;;;;;;4954653;29;20035;-90
2022/01/06 04:20:02;;;;;;;5.77;0.80;;;2.10;99.90;;;;;;4958050;28;20038;-90
2022/01/06 04:22:27;;;;;;;4.63;0.90;;;2.10;99.90;;;;;;4968749;28;20042;-89
2022/01/06 04:24:53;;;;;;;2.50;1.10;;;2.10;99.90;;;;;;4942043;28;20124;-89
2022/01/06 04:27:19;;;;;;;3.30;1.00;;;2.10;99.90;;;;;;4939365;29;20027;-89
2022/01/06 04:29:44;;;;;;;5.93;1.00;;;2.10;99.90;;;;;;4944872;28;20018;-90
2022/01/06 04:32:10;;;;;;;2.60;1.00;;;2.10;99.90;;;;;;4972988;28;20368;-89
2022/01/06 04:34:35;;;;;;;1.17;0.70;;;2.10;99.90;;;;;;4962147;28;20077;-89
2022/01/06 04:37:01;;;;;;;3.57;1.00;;;2.20;99.90;;;;;;4943735;28;20067;-90
2022/01/06 04:39:27;;;;;;;3.67;1.00;;;2.10;99.90;;;;;;4953186;29;20038;-90
2022/01/06 04:41:53;;;;;;;4.60;1.00;;;2.20;99.90;;;;;;4940617;28;20030;-89
2022/01/06 04:44:19;;;;;;;2.33;0.90;;;2.20;99.90;;;;;;4974279;28;20030;-90
2022/01/06 04:46:44;;;;;;;3.40;0.80;;;2.20;99.90;;;;;;4974434;28;20126;-89
2022/01/06 04:49:10;;;;;;;4.60;1.00;;;2.10;99.90;;;;;;4973821;28;20167;-88
2022/01/06 04:51:36;;;;;;;3.67;0.73;;;2.20;99.90;;;;;;4969947;28;20123;-87
2022/01/06 04:54:02;;;;;;;1.73;0.77;;;2.20;99.90;;;;;;4975461;28;20082;-88
2022/01/06 04:56:35;;;;;;;2.60;1.00;;;2.20;99.90;;;;;;4973967;28;20039;-88
2022/01/06 04:59:02;;;;;;;2.20;0.80;;;2.20;99.90;;;;;;4974150;28;20380;-90
2022/01/06 05:01:27;;;;;;;3.07;1.03;;;2.20;99.90;;;;;;4963819;28;20049;-89
2022/01/06 05:03:53;;;;;;;1.97;0.70;;;2.20;99.90;;;;;;4973162;28;20490;-89
2022/01/06 05:06:18;;;;;;;2.37;0.80;;;2.30;99.90;;;;;;4973750;28;20022;-89
2022/01/06 05:08:44;;;;;;;7.37;1.10;;;2.20;99.90;;;;;;4966324;28;20023;-90
2022/01/06 05:11:09;;;;;;;4.23;1.27;;;2.30;99.90;;;;;;4974811;28;20372;-90
2022/01/06 05:13:35;;;;;;;5.30;1.03;;;2.20;99.90;;;;;;4973792;28;20019;-90
2022/01/06 05:16:00;;;;;;;3.47;0.80;;;2.20;99.90;;;;;;4957809;28;20125;-89
2022/01/06 05:18:26;;;;;;;6.17;1.20;;;2.20;99.90;;;;;;4953480;28;20507;-90
2022/01/06 05:20:52;;;;;;;4.17;1.57;;;2.20;99.90;;;;;;4919271;29;20035;-89
2022/01/06 05:23:19;;;;;;;5.23;1.00;;;2.20;99.90;;;;;;4921824;29;20063;-89
2022/01/06 05:25:44;;;;;;;5.00;1.37;;;2.10;99.90;;;;;;4953617;28;20122;-89
2022/01/06 05:28:10;;;;;;;3.97;1.27;;;2.20;99.90;;;;;;4953947;29;20122;-90
2022/01/06 05:30:36;;;;;;;4.33;1.20;;;2.20;99.90;;;;;;4954125;28;20023;-89
2022/01/06 05:33:01;;;;;;;3.67;0.87;;;2.20;99.90;;;;;;4944567;28;20031;-90
2022/01/06 05:35:27;;;;;;;4.03;1.87;;;2.20;99.90;;;;;;4935056;29;20115;-89
2022/01/06 05:37:53;;;;;;;5.43;1.40;;;2.10;99.90;;;;;;4934614;29;20062;-89
2022/01/06 05:40:21;;;;;;;4.93;1.13;;;2.10;99.90;;;;;;4934777;29;20039;-89
2022/01/06 05:42:48;;;;;;;2.60;1.00;;;2.10;99.90;;;;;;4945427;28;20036;-89
2022/01/06 05:45:16;;;;;;;1.70;0.77;;;2.10;99.90;;;;;;4950560;28;20028;-89
2022/01/06 05:47:41;;;;;;;4.10;1.13;;;2.10;99.90;;;;;;4934063;29;20048;-90
2022/01/06 05:50:08;;;;;;;2.07;0.80;;;2.10;99.90;;;;;;4952252;28;20056;-89
2022/01/06 05:52:35;;;;;;;3.13;0.97;;;2.10;99.90;;;;;;4972729;28;20065;-89
2022/01/06 05:55:01;;;;;;;7.23;1.10;;;2.10;99.90;;;;;;4972884;28;20027;-89
2022/01/06 05:57:26;;;;;;;3.23;1.00;;;2.10;99.90;;;;;;4973938;28;20026;-89
2022/01/06 05:59:52;;;;;;;4.00;1.20;;;2.10;99.90;;;;;;4952563;28;20054;-89
2022/01/06 06:02:18;;;;;;;2.80;1.17;;;2.20;99.90;;;;;;4941641;28;20027;-90
2022/01/06 06:04:43;;;;;;;2.23;1.20;;;2.10;99.90;;;;;;4937338;29;20034;-89
2022/01/06 06:07:09;;;;;;;6.33;1.17;;;2.10;99.90;;;;;;4953094;28;20027;-90
2022/01/06 06:09:34;;;;;;;4.27;0.90;;;2.10;99.90;;;;;;4967608;28;20033;-88
2022/01/06 06:12:00;;;;;;;2.73;1.17;;;2.10;99.90;;;;;;4972624;28;20499;-89
2022/01/06 06:14:25;;;;;;;2.47;0.87;;;2.10;99.90;;;;;;4972419;28;20030;-89
2022/01/06 06:16:51;;;;;;;2.53;1.00;;;2.10;99.90;;;;;;4971060;28;20676;-90
2022/01/06 06:19:17;;;;;;;4.37;0.87;;;2.10;99.90;;;;;;4972048;28;20030;-90
2022/01/06 06:21:42;;;;;;;2.70;0.93;;;2.10;99.90;;;;;;4972613;28;20034;-87
2022/01/06 06:24:09;;;;;;;2.70;0.90;;;2.20;99.90;;;;;;4962696;28;20039;-87
2022/01/06 06:26:34;;;;;;;5.17;0.97;;;2.10;99.90;;;;;;4952596;28;20066;-87
2022/01/06 06:29:01;;;;;;;3.27;1.10;;;2.10;99.90;;;;;;4952664;29;20499;-88
2022/01/06 06:31:26;;;;;;;4.13;1.40;;;2.10;99.90;;;;;;4953328;28;20027;-87
2022/01/06 06:33:52;;;;;;;2.37;1.07;;;2.10;99.90;;;;;;4952068;28;20391;-88
2022/01/06 06:36:17;;;;;;;2.33;0.90;;;2.10;99.90;;;;;;4952809;28;20105;-88
2022/01/06 06:38:43;;;;;;;3.50;1.23;;;2.10;99.90;;;;;;4953735;29;20574;-87
2022/01/06 06:41:09;;;;;;;4.03;1.50;;;2.10;99.90;;;;;;4954036;28;20023;-88
2022/01/06 06:43:34;;;;;;;1.97;1.00;;;2.10;99.90;;;;;;4955843;28;20039;-87
2022/01/06 06:46:00;;;;;;;2.77;1.23;;;2.10;99.90;;;;;;4952917;28;20439;-87
2022/01/06 07:00:51;;;;;;;5.87;0.90;;;2.10;99.90;;;;;;4983444;23;20047;-88
2022/01/06 07:03:49;;;;;;;6.30;1.05;;;2.10;99.90;;;;;;4967021;28;20047;-89
2022/01/06 07:06:58;;;;;;;2.37;1.00;;;2.20;99.90;;;;;;4963097;28;20055;-89
2022/01/06 08:02:48;;;;;;;4.03;1.30;;;2.20;99.90;;;;;;648199;26;20309;-88
2022/01/06 08:05:19;;;;;;;3.23;1.00;;;2.10;99.90;;;;;;4948750;29;20048;-89
2022/01/06 08:34:17;;;;;;;;;;;;;;;;;;;;;
2022/01/06 08:37:06;;;;;;;4.40;1.20;;;2.00;99.90;;;;;;4983487;28;20105;-88
2022/01/06 08:40:00;;;;;;;3.23;1.10;;;1.90;99.90;;;;;;4987801;28;20053;-88
2022/01/06 08:42:46;;;;;;;4.00;1.27;;;1.90;99.90;;;;;;4988115;28;20126;-89
2022/01/06 08:45:21;;;;;;;4.60;0.90;;;1.80;99.90;;;;;;4993370;28;20031;-90
2022/01/06 08:53:04;;;;;;;5.63;1.20;;;2.10;99.90;;;;;;1359272;26;20142;-87
2022/01/06 08:55:30;;;;;;;5.78;1.17;;;2.20;99.90;;;;;;5004278;28;20030;-87
2022/01/06 08:58:01;;;;;;;6.07;1.27;;;2.30;99.90;;;;;;5005320;23;20125;-89
2022/01/06 09:00:35;;;;;;;6.40;1.43;;;2.50;99.90;;;;;;4949583;29;20043;-88
2022/01/06 09:03:10;;;;;;;5.30;1.23;;;2.50;99.90;;;;;;4967221;29;20451;-89
2022/01/06 09:05:53;;;;;;;3.77;1.07;;;2.70;99.90;;;;;;4948806;29;20051;-88
2022/01/06 09:08:22;;;;;;;6.20;1.10;;;2.70;99.90;;;;;;4940448;29;20038;-88
2022/01/06 09:11:26;;;;;;;5.80;1.40;;;2.60;99.90;;;;;;4945959;29;20116;-88
2022/01/06 09:13:57;;;;;;;9.77;1.47;;;2.50;99.90;;;;;;4944812;29;20135;-88
2022/01/06 09:16:26;;;;;;;2.23;0.90;;;2.40;99.90;;;;;;4944460;29;20380;-88
2022/01/06 09:19:08;;;;;;;2.30;0.90;;;2.50;99.90;;;;;;4945133;29;20508;-88
2022/01/06 09:21:46;;;;;;;5.00;1.17;;;2.40;99.90;;;;;;4943302;29;20040;-87
2022/01/06 09:24:42;;;;;;;4.43;1.03;;;2.30;99.90;;;;;;4941460;29;20043;-88
2022/01/06 09:27:16;;;;;;;7.00;1.53;;;2.40;99.90;;;;;;4920522;29;20268;-88
2022/01/06 09:29:55;;;;;;;3.10;1.50;;;2.40;99.90;;;;;;4934547;29;20031;-88
2022/01/06 09:32:41;;;;;;;5.10;1.30;;;2.70;99.90;;;;;;4957127;29;20027;-88
2022/01/06 09:35:24;;;;;;;4.93;1.20;;;2.90;99.90;;;;;;4938548;29;20044;-87
2022/01/06 09:37:50;;;;;;;3.67;1.20;;;3.20;99.90;;;;;;4943764;29;20071;-88
2022/01/06 09:40:30;;;;;;;4.97;1.27;;;3.20;99.90;;;;;;4945135;29;20031;-88
2022/01/06 09:43:30;;;;;;;8.00;1.57;;;3.30;99.90;;;;;;4946267;29;20487;-88
2022/01/06 09:46:20;;;;;;;6.63;1.37;;;3.40;99.90;;;;;;4946788;29;20032;-88
2022/01/06 10:01:46;;;;;;;3.83;1.17;;;3.70;99.90;;;;;;4279781;26;20071;-88
2022/01/06 10:08:15;;;;;;;5.10;1.05;;;3.90;99.90;;;;;;4954026;28;20024;-90
2022/01/06 10:11:24;;;;;;;5.53;1.10;;;3.90;99.90;;;;;;4941227;29;20048;-88
2022/01/06 10:36:54;;;;;;;;;;;;;;;;;;;;;
2022/01/06 12:17:59;;;;;;;4.10;0.50;;;4.00;99.90;;;;;;1246617;23;20468;-90
2022/01/06 12:20:42;;;;;;;4.77;0.97;;;4.10;99.90;;;;;;4994553;28;20092;-90
2022/01/06 12:24:08;;;;;;;5.90;0.60;;;4.10;99.90;;;;;;4994842;28;20026;-89
2022/01/06 12:31:06;;;;;;;;;;;;;;;;;;;;;
2022/01/06 12:34:26;;;;;;;;;;;;;;;;;;;;;
2022/01/06 12:37:14;;;;;;;4.07;0.57;;;4.90;99.90;;;;;;4903592;29;20612;-88
2022/01/06 12:50:01;;;;;;;5.17;0.63;;;4.90;99.90;;;;;;5073487;23;20129;-89
2022/01/06 12:52:27;;;;;;;;;;;4.80;99.90;;;;;;4953865;28;20037;-89
2022/01/06 12:54:52;;;;;;;4.57;0.90;;;4.70;99.90;;;;;;4959471;28;19918;-89
2022/01/06 12:57:18;;;;;;;3.83;1.07;;;4.60;99.90;;;;;;4975355;28;20059;-89
2022/01/06 12:59:49;;;;;;;4.53;0.70;;;4.50;99.90;;;;;;4989967;28;20062;-89
2022/01/06 13:02:15;;;;;;;2.47;0.80;;;4.30;99.90;;;;;;4979979;28;20034;-88
2022/01/06 13:04:44;;;;;;;2.57;0.60;;;4.20;99.90;;;;;;4951111;28;20104;-89
2022/01/06 13:07:11;;;;;;;5.97;0.97;;;4.20;99.90;;;;;;4975187;28;20022;-89
2022/01/06 13:09:39;;;;;;;5.03;0.67;;;4.10;99.90;;;;;;4973339;28;20027;-89
2022/01/06 13:12:19;;;;;;;2.27;0.60;;;3.90;99.90;;;;;;4973778;28;20478;-89
2022/01/06 13:14:49;;;;;;;3.20;0.60;;;3.90;99.90;;;;;;4971885;28;20070;-88
2022/01/06 13:17:29;;;;;;;6.37;0.80;;;3.80;99.90;;;;;;4973103;28;20022;-88
2022/01/06 13:20:10;;;;;;;6.17;1.40;;;3.80;99.90;;;;;;4990842;28;20038;-88
2022/01/06 13:25:15;;;;;;;4.97;1.00;;;3.60;99.90;;;;;;4982963;28;20037;-89
2022/01/06 13:28:01;;;;;;;4.43;0.77;;;3.60;99.90;;;;;;4992683;28;20038;-89
2022/01/06 13:30:35;;;;;;;3.93;1.17;;;3.50;99.90;;;;;;4993083;28;20577;-88
2022/01/06 13:33:03;;;;;;;3.23;0.43;;;3.40;99.90;;;;;;4981184;28;20098;-88
2022/01/06 13:35:29;;;;;;;7.70;0.90;;;3.40;99.90;;;;;;4993858;28;20167;-88
2022/01/06 13:37:54;;;;;;;5.40;0.90;;;3.40;99.90;;;;;;4992905;28;20430;-88
2022/01/06 13:40:20;;;;;;;2.03;0.50;;;3.30;99.90;;;;;;4992898;28;20030;-88
2022/01/06 13:42:52;;;;;;;5.00;0.77;;;3.30;99.90;;;;;;4976206;28;20066;-88
2022/01/06 13:45:26;;;;;;;2.67;0.87;;;3.30;99.90;;;;;;4957444;28;20027;-88
2022/01/06 13:53:21;;;;;;;6.20;0.63;;;3.30;99.90;;;;;;4974544;28;20034;-88
2022/01/06 13:56:07;;;;;;;6.33;0.67;;;3.30;99.90;;;;;;4973221;28;20561;-87
2022/01/06 13:58:39;;;;;;;3.80;0.83;;;3.20;99.90;;;;;;4976013;28;20042;-88
2022/01/06 14:01:08;;;;;;;3.95;0.30;;;3.20;99.90;;;;;;4962689;28;20102;-90
2022/01/06 14:03:35;;;;;;;1.63;0.63;;;3.20;99.90;;;;;;4964965;28;20039;-90
2022/01/06 14:06:04;;;;;;;3.53;0.77;;;3.20;99.90;;;;;;4974847;28;20030;-89
2022/01/06 14:08:30;;;;;;;5.20;0.83;;;3.20;99.90;;;;;;4992740;28;20487;-90
2022/01/06 14:10:56;;;;;;;6.17;1.30;;;3.20;99.90;;;;;;4994211;28;20023;-89
2022/01/06 14:13:21;;;;;;;3.33;0.60;;;3.20;99.90;;;;;;4982931;28;20031;-90
2022/01/06 14:15:47;;;;;;;1.83;0.60;;;3.20;99.90;;;;;;4967590;28;20407;-89
2022/01/06 14:18:14;;;;;;;7.70;0.83;;;3.20;99.90;;;;;;4975447;28;20022;-90
2022/01/06 14:20:40;;;;;;;8.90;1.10;;;3.30;99.90;;;;;;4993469;28;20026;-90
2022/01/06 14:23:05;;;;;;;4.13;0.80;;;3.30;99.90;;;;;;4983314;28;20566;-90
2022/01/06 14:25:31;;;;;;;5.27;0.70;;;3.30;99.90;;;;;;4972626;28;20081;-90
2022/01/06 14:27:57;;;;;;;5.70;0.97;;;3.40;99.90;;;;;;4972212;28;20050;-90
2022/01/06 14:30:23;;;;;;;2.67;0.90;;;3.40;99.90;;;;;;4972610;28;20023;-89
2022/01/06 14:32:53;;;;;;;3.83;0.73;;;3.60;99.90;;;;;;4981401;28;20118;-91
2022/01/06 14:35:19;;;;;;;4.57;1.00;;;3.70;99.90;;;;;;4992161;28;20030;-90
2022/01/06 14:37:45;;;;;;;2.83;0.60;;;3.80;99.90;;;;;;4990961;28;20042;-90
2022/01/06 14:40:11;;;;;;;1.27;0.50;;;3.80;99.90;;;;;;4982639;28;20094;-90
2022/01/06 14:42:38;;;;;;;2.70;0.50;;;3.80;99.90;;;;;;4974154;28;20086;-90
2022/01/06 14:45:05;;;;;;;5.03;0.80;;;3.90;99.90;;;;;;4956324;28;20031;-90
2022/01/06 14:47:31;;;;;;;2.53;0.50;;;3.90;99.90;;;;;;4955235;28;20049;-90
2022/01/06 14:49:57;;;;;;;2.70;0.67;;;3.90;99.90;;;;;;4972343;28;20491;-90
2022/01/06 14:52:22;;;;;;;4.63;0.70;;;3.80;99.90;;;;;;4974027;28;20030;-90
2022/01/06 14:54:49;;;;;;;7.07;0.73;;;3.80;99.90;;;;;;4972299;28;20027;-90
2022/01/06 14:57:16;;;;;;;3.70;0.80;;;3.80;99.90;;;;;;4971342;28;20070;-90
2022/01/06 14:59:41;;;;;;;6.97;1.00;;;3.80;99.90;;;;;;4971622;28;20030;-90
2022/01/06 15:02:07;;;;;;;6.07;0.73;;;3.70;99.90;;;;;;4972174;28;20586;-90
2022/01/06 15:04:35;;;;;;;2.23;0.70;;;3.70;99.90;;;;;;4964538;28;20114;-90
2022/01/06 15:07:01;;;;;;;2.27;0.50;;;3.70;99.90;;;;;;4982073;28;20033;-90
2022/01/06 15:09:26;;;;;;;3.17;0.50;;;3.70;99.90;;;;;;4992332;28;20826;-89
2022/01/06 15:11:52;;;;;;;5.20;0.50;;;3.60;99.90;;;;;;4986745;28;20022;-90
2022/01/06 15:14:18;;;;;;;3.57;0.53;;;3.60;99.90;;;;;;4973345;28;20038;-90
2022/01/06 15:16:43;;;;;;;8.90;0.87;;;3.50;99.90;;;;;;4956041;28;20121;-90
2022/01/06 15:19:09;;;;;;;5.23;0.73;;;3.50;99.90;;;;;;4973267;28;20081;-89
2022/01/06 15:21:37;;;;;;;7.27;0.90;;;3.40;99.90;;;;;;4954553;28;20566;-89
2022/01/06 15:24:07;;;;;;;1.10;0.40;;;3.40;99.90;;;;;;4968696;28;20027;-90
2022/01/06 15:26:33;;;;;;;4.60;0.70;;;3.40;99.90;;;;;;4953481;29;20023;-90
2022/01/06 15:28:59;;;;;;;5.23;0.90;;;3.40;99.90;;;;;;4936268;29;20027;-90
2022/01/06 15:31:24;;;;;;;5.10;0.67;;;3.30;99.90;;;;;;4952354;29;20019;-90
2022/01/06 15:33:50;;;;;;;4.87;0.83;;;3.30;99.90;;;;;;4952281;29;20078;-90
2022/01/06 15:36:17;;;;;;;3.30;0.70;;;3.30;99.90;;;;;;4953872;29;20114;-90
2022/01/06 15:38:43;;;;;;;2.87;0.70;;;3.20;99.90;;;;;;4941651;28;20115;-90
2022/01/06 15:41:09;;;;;;;5.13;1.00;;;3.10;99.90;;;;;;4955475;28;20041;-90
2022/01/06 15:43:34;;;;;;;5.73;0.63;;;3.10;99.90;;;;;;4971784;28;20034;-90
2022/01/06 15:46:00;;;;;;;6.70;0.67;;;3.10;99.90;;;;;;4970645;28;20626;-90
2022/01/06 15:48:30;;;;;;;8.13;1.07;;;3.00;99.90;;;;;;4973113;28;20095;-90
2022/01/06 15:50:57;;;;;;;5.00;0.70;;;3.00;99.90;;;;;;4976849;28;20407;-90
2022/01/06 15:53:23;;;;;;;3.17;1.30;;;2.90;99.90;;;;;;4959477;28;20018;-90
2022/01/06 15:55:48;;;;;;;6.73;0.70;;;2.90;99.90;;;;;;4958795;28;20459;-89
2022/01/06 15:58:15;;;;;;;3.07;0.70;;;2.90;99.90;;;;;;4974476;28;20062;-90
2022/01/06 16:05:51;;;;;;;1.93;0.70;;;2.70;99.90;;;;;;4976295;28;20174;-90
2022/01/06 16:08:17;;;;;;;7.40;1.03;;;2.60;99.90;;;;;;4993871;28;20031;-89
2022/01/06 16:10:48;;;;;;;2.83;0.70;;;2.60;99.90;;;;;;4994221;28;20026;-90
2022/01/06 16:13:15;;;;;;;5.43;0.80;;;2.50;99.90;;;;;;4992662;28;20030;-90
2022/01/06 16:15:40;;;;;;;6.87;0.90;;;2.50;99.90;;;;;;4974927;28;20031;-89
2022/01/06 16:18:07;;;;;;;5.93;1.20;;;2.40;99.90;;;;;;4974559;28;20582;-90
2022/01/06 16:20:33;;;;;;;3.00;0.90;;;2.40;99.90;;;;;;4958450;28;20380;-90
2022/01/06 16:22:59;;;;;;;3.07;1.10;;;2.30;99.90;;;;;;4973920;28;20031;-90
2022/01/06 16:25:24;;;;;;;4.57;1.20;;;2.30;99.90;;;;;;4974571;28;20033;-90
2022/01/06 16:27:51;;;;;;;7.40;1.10;;;2.30;99.90;;;;;;4970670;28;20039;-90
2022/01/06 16:30:40;;;;;;;5.67;1.40;;;2.20;99.90;;;;;;4983070;28;20019;-90
2022/01/06 16:33:05;;;;;;;4.90;1.33;;;2.20;99.90;;;;;;4985691;28;20015;-90
2022/01/06 16:35:31;;;;;;;9.83;1.70;;;2.20;99.90;;;;;;4969202;28;20053;-90
2022/01/06 16:37:57;;;;;;;7.30;2.03;;;2.20;99.90;;;;;;4977520;28;20106;-89
2022/01/06 16:40:23;;;;;;;6.13;2.13;;;2.10;99.90;;;;;;4974531;28;20045;-90
2022/01/06 16:42:48;;;;;;;6.77;1.87;;;2.10;99.90;;;;;;4973404;28;20037;-91
2022/01/06 16:45:14;;;;;;;7.03;1.50;;;2.00;99.90;;;;;;4975476;28;20054;-91
2022/01/06 16:47:40;;;;;;;6.27;1.20;;;2.00;99.90;;;;;;4973960;28;20058;-90
2022/01/06 16:50:06;;;;;;;5.73;1.67;;;1.90;99.90;;;;;;4974263;28;20034;-91
2022/01/06 16:52:32;;;;;;;6.13;1.33;;;1.90;99.90;;;;;;4957667;28;20027;-91
2022/01/06 16:54:58;;;;;;;9.47;1.70;;;1.90;99.90;;;;;;4973986;28;20061;-90
2022/01/06 16:57:23;;;;;;;3.97;1.60;;;1.90;99.90;;;;;;4973515;28;20133;-90
2022/01/06 16:59:49;;;;;;;5.00;1.40;;;1.80;99.90;;;;;;4972589;28;20027;-91
2022/01/06 17:02:17;;;;;;;5.83;1.63;;;1.80;99.90;;;;;;4974254;28;20103;-91
2022/01/06 17:04:42;;;;;;;7.03;1.60;;;1.80;99.90;;;;;;4957580;28;20113;-91
2022/01/06 17:07:08;;;;;;;6.73;1.40;;;1.70;99.90;;;;;;4975247;28;20055;-90
2022/01/06 17:09:34;;;;;;;4.30;1.80;;;1.70;99.90;;;;;;4972764;28;20676;-89
2022/01/06 17:12:00;;;;;;;6.57;1.73;;;1.70;99.90;;;;;;4957670;28;20034;-91
2022/01/06 17:14:25;;;;;;;8.50;1.63;;;1.60;99.90;;;;;;4973645;28;20435;-91
2022/01/06 17:16:51;;;;;;;6.23;1.77;;;1.60;99.90;;;;;;4975030;28;20037;-90
2022/01/06 17:19:16;;;;;;;4.70;1.53;;;1.60;99.90;;;;;;4972565;28;20081;-90
2022/01/06 17:21:42;;;;;;;6.23;1.40;;;1.50;99.90;;;;;;4957317;28;20351;-90
2022/01/06 17:24:11;;;;;;;4.07;1.23;;;1.50;99.90;;;;;;4957425;28;20330;-90
2022/01/06 17:26:36;;;;;;;4.13;1.50;;;1.50;99.90;;;;;;4956554;28;20134;-90
2022/01/06 17:29:02;;;;;;;7.40;2.00;;;1.40;99.90;;;;;;4973061;28;20125;-91
2022/01/06 17:31:30;;;;;;;7.10;2.27;;;1.40;99.90;;;;;;4973134;28;20031;-90
2022/01/06 17:33:56;;;;;;;7.83;2.30;;;1.40;99.90;;;;;;4968936;28;20117;-91
2022/01/06 17:36:22;;;;;;;7.77;2.03;;;1.30;99.90;;;;;;4973335;28;20043;-90
2022/01/06 17:38:48;;;;;;;7.67;3.00;;;1.30;99.90;;;;;;4957858;28;20510;-91
2022/01/06 17:41:14;;;;;;;4.90;2.23;;;1.30;99.90;;;;;;4969721;28;20038;-92
2022/01/06 17:43:40;;;;;;;8.17;2.90;;;1.30;99.90;;;;;;4959004;28;20039;-87